Highland, MI (48356)

5:24 AM EST on February 13, 2016 (GMT -0500)
Axford Acres | | Change Station
CLOSE
Current Station
Personal Weather Station
Location: Highland, MI
Elevation: 1038 ft
Nearby Weather Stations

Elev 1038 ft 42.67 °N, 83.59 °W | Updated 5 minutes ago

Clear
Clear
0.1 °F
Feels Like 0 °F
N
0.0
Wind Variable Wind from WSW

Today
High -- | Low -- °F
--% Chance of Precip.
Yesterday
High -- | Low -- °F
Precip. -- in
Pressure 30.37 in
Visibility 10.0 miles
Clouds Clear
Windchill 0 °F
Dew Point -9 °F
Humidity 65%
Rainfall 0.00 in
Snow Depth Not available.
7:34 AM 6:03 PM
Waxing Crescent, 29% visible
METAR KPTK 130953Z AUTO 27007KT 10SM CLR M18/M22 A3030 RMK AO2 SLP283 T11781222
Pressure 30.37 in
Visibility 10.0 miles
Clouds Clear
Windchill 0 °F
Dew Point -9 °F
Humidity 65%
Rainfall 0.00 in
Snow Depth Not available.
7:34 AM 6:03 PM
Waxing Crescent, 29% visible
METAR KPTK 130953Z AUTO 27007KT 10SM CLR M18/M22 A3030 RMK AO2 SLP283 T11781222

10-Day Weather Forecast

Almanac

Astronomy

Feb. 13, 2016 Rise Set
Actual Time
Civil Twilight
Nautical Twilight
Astronomical Twilight
Moon
Length of Visible Light
Length of Day
Tomorrow will be .
, % of the Moon is Illuminated

Today's Extremes

State Highs State Lows

Community

WunderPhotos

Upload Photos

1,892,536 photos uploaded!

WunderBlog® & News

Nearby

Air Quality

  Air Quality AQ Index Pollutant
Not available.

Snow Depth

Station Depth Elevation

Earthquake Activity

City Distance Mag. Time & Date
Minimum magnitude displayed is 2.5.

Coastal Water Temperatures

Place Temperature

Stations

Nearby Weather Stations

Station Location Temp. Windchill Dew Point Humidity Wind Precip. Elev Updated Type
                   

Watches & Warnings

There are currently no watches in effect.